createdAt,value
2023-02-08T00:00:18.893Z,27.55
2023-02-08T00:05:21.155Z,46.95
2023-02-08T00:10:23.308Z,38.42
2023-02-08T00:15:25.451Z,26.13
2023-02-08T00:20:27.841Z,18.17
2023-02-08T00:25:29.972Z,19.73
2023-02-08T00:30:33.221Z,19.42
2023-02-08T00:35:37.293Z,20.33
2023-02-08T00:40:42.681Z,18.45
2023-02-08T00:45:46.835Z,16.75
2023-02-08T00:51:18.252Z,15.43
2023-02-08T00:56:20.589Z,17.35
2023-02-08T01:01:23.328Z,21.75
2023-02-08T01:11:30.753Z,21.90
2023-02-08T01:16:34.221Z,18.23
2023-02-08T01:21:39.836Z,21.15
2023-02-08T01:31:46.738Z,20.80
2023-02-08T01:36:48.940Z,17.57
2023-02-08T01:41:51.016Z,13.63
2023-02-08T01:46:53.080Z,15.82
2023-02-08T01:52:01.671Z,14.63
2023-02-08T01:57:05.448Z,14.57
2023-02-08T02:02:11.540Z,13.13
2023-02-08T02:07:14.541Z,13.98
2023-02-08T02:12:17.670Z,13.10
2023-02-08T02:17:20.757Z,11.75
2023-02-08T02:22:32.072Z,12.15
2023-02-08T02:27:37.121Z,15.48
2023-02-08T02:33:06.061Z,14.30
2023-02-08T02:38:20.007Z,13.50
2023-02-08T02:43:44.066Z,13.13
2023-02-08T02:49:06.194Z,16.40
2023-02-08T02:54:14.531Z,15.02
2023-02-08T02:59:18.302Z,12.85
2023-02-08T03:04:40.763Z,15.70
2023-02-08T03:09:51.815Z,13.98
2023-02-08T03:15:07.006Z,13.52
2023-02-08T03:20:21.916Z,8.02
2023-02-08T03:25:34.944Z,11.17
2023-02-08T03:30:51.274Z,10.07
2023-02-08T03:36:21.064Z,11.75
2023-02-08T03:41:29.707Z,9.98
2023-02-08T03:46:36.617Z,12.27
2023-02-08T03:51:39.338Z,11.55
2023-02-08T03:56:54.521Z,11.65
2023-02-08T04:02:05.572Z,11.60
2023-02-08T04:07:07.819Z,10.07
2023-02-08T04:12:09.993Z,13.32
2023-02-08T04:17:12.166Z,12.85
2023-02-08T04:22:14.301Z,12.90
2023-02-08T04:27:16.530Z,12.52
2023-02-08T04:32:18.616Z,10.90
2023-02-08T04:37:20.650Z,12.50
2023-02-08T04:42:22.739Z,11.30
2023-02-08T04:47:24.805Z,12.40
2023-02-08T04:52:26.870Z,11.40
2023-02-08T04:57:29.016Z,12.98
2023-02-08T05:02:31.075Z,12.50
2023-02-08T05:07:33.164Z,12.30
2023-02-08T05:12:35.225Z,12.35
2023-02-08T05:17:38.799Z,9.25
2023-02-08T05:22:41.254Z,13.18
2023-02-08T05:27:43.273Z,10.88
2023-02-08T05:32:45.408Z,10.82
2023-02-08T05:37:47.521Z,11.98
2023-02-08T05:42:49.527Z,9.43
2023-02-08T05:47:51.572Z,11.98
2023-02-08T05:52:53.619Z,14.15
2023-02-08T05:57:55.690Z,12.93
2023-02-08T06:02:58.575Z,10.25
2023-02-08T06:08:00.844Z,9.73
2023-02-08T06:13:03.618Z,12.50
2023-02-08T06:18:05.753Z,10.02
2023-02-08T06:23:07.884Z,11.18
2023-02-08T06:28:10.854Z,11.35
2023-02-08T06:33:15.603Z,9.77
2023-02-08T06:38:18.645Z,10.60
2023-02-08T06:43:20.745Z,11.15
2023-02-08T06:48:22.773Z,13.23
2023-02-08T06:53:24.825Z,13.43
2023-02-08T06:58:26.914Z,14.18
2023-02-08T07:03:29.149Z,16.33
2023-02-08T07:08:35.026Z,15.55
2023-02-08T07:13:38.144Z,13.98
2023-02-08T07:18:40.293Z,13.25
2023-02-08T07:23:42.401Z,12.30
2023-02-08T07:28:45.018Z,14.10
2023-02-08T07:33:47.297Z,14.73
2023-02-08T07:38:49.394Z,13.48
2023-02-08T07:43:51.425Z,12.77
2023-02-08T07:48:53.533Z,12.57
2023-02-08T07:53:55.611Z,13.43
2023-02-08T07:58:57.675Z,11.95
2023-02-08T08:03:59.825Z,20.55
2023-02-08T08:09:02.332Z,19.88
2023-02-08T08:14:04.354Z,21.13
2023-02-08T08:19:06.367Z,21.88
2023-02-08T08:24:08.579Z,26.02
2023-02-08T08:29:10.624Z,17.73
2023-02-08T08:34:12.758Z,13.65
2023-02-08T08:39:14.879Z,15.88
2023-02-08T08:44:17.251Z,16.73
2023-02-08T08:49:19.287Z,16.92
2023-02-08T08:54:22.142Z,13.75
2023-02-08T08:59:24.285Z,12.25
2023-02-08T09:04:26.440Z,16.35
2023-02-08T09:09:28.597Z,14.70
2023-02-08T09:14:31.823Z,13.48
2023-02-08T09:19:33.872Z,15.45
2023-02-08T09:24:36.140Z,13.75
2023-02-08T09:29:38.314Z,12.68
2023-02-08T09:34:40.428Z,16.58
2023-02-08T09:39:42.797Z,15.00
2023-02-08T09:45:03.566Z,14.68
2023-02-08T09:50:21.249Z,14.68
2023-02-08T09:55:36.062Z,15.30
2023-02-08T10:00:43.401Z,14.57
2023-02-08T10:05:45.690Z,11.75
2023-02-08T10:11:07.681Z,12.30
2023-02-08T10:16:47.270Z,14.70
2023-02-08T10:22:04.408Z,17.48
2023-02-08T10:27:16.603Z,16.65
2023-02-08T10:32:35.357Z,14.43
2023-02-08T10:37:41.693Z,12.25
2023-02-08T10:42:54.503Z,11.68
2023-02-08T10:48:01.924Z,12.25
2023-02-08T10:53:04.924Z,13.00
2023-02-08T10:58:07.559Z,11.90
2023-02-08T11:03:23.489Z,12.13
2023-02-08T11:13:51.479Z,11.82
2023-02-08T11:19:02.015Z,15.38
2023-02-08T11:24:39.805Z,11.68
2023-02-08T11:29:41.885Z,9.73
2023-02-08T11:34:45.599Z,8.43
2023-02-08T11:39:58.692Z,7.75
2023-02-08T11:45:01.204Z,7.20
2023-02-08T11:50:07.252Z,8.25
2023-02-08T11:55:30.233Z,6.35
2023-02-08T12:00:37.228Z,5.55
2023-02-08T12:05:42.359Z,5.10
2023-02-08T12:11:05.713Z,5.20
2023-02-08T12:16:26.310Z,5.13
2023-02-08T12:21:43.483Z,5.07
2023-02-08T12:27:04.523Z,4.10
2023-02-08T12:32:19.945Z,3.72
2023-02-08T12:37:55.400Z,5.20
2023-02-08T12:43:19.628Z,3.80
2023-02-08T12:48:43.412Z,3.30
2023-02-08T12:54:00.549Z,3.58
2023-02-08T12:59:13.226Z,2.55
2023-02-08T13:04:27.559Z,6.00
2023-02-08T13:09:42.135Z,7.15
2023-02-08T13:15:24.811Z,6.13
2023-02-08T13:20:56.857Z,5.75
2023-02-08T13:26:03.204Z,7.63
2023-02-08T13:31:14.565Z,5.72
2023-02-08T13:36:25.988Z,4.05
2023-02-08T13:41:29.827Z,5.25
2023-02-08T13:46:45.936Z,7.25
2023-02-08T13:51:53.282Z,7.68
2023-02-08T13:56:56.293Z,4.70
2023-02-08T14:02:18.929Z,3.70
2023-02-08T14:07:28.897Z,5.50
2023-02-08T14:12:46.495Z,5.22
2023-02-08T14:17:51.215Z,5.90
2023-02-08T14:23:18.515Z,5.68
2023-02-08T14:28:40.431Z,4.13
2023-02-08T14:33:54.483Z,5.95
2023-02-08T14:39:08.124Z,4.32
2023-02-08T14:44:38.121Z,7.03
2023-02-08T14:49:43.451Z,4.90
2023-02-08T14:54:53.861Z,4.00
2023-02-08T14:59:59.809Z,6.63
2023-02-08T15:05:09.518Z,6.22
2023-02-08T15:10:14.779Z,5.68
2023-02-08T15:15:25.566Z,4.28
2023-02-08T15:20:30.448Z,3.88
2023-02-08T15:25:35.078Z,4.40
2023-02-08T15:30:39.652Z,4.63
2023-02-08T15:35:43.690Z,6.32
2023-02-08T15:41:05.757Z,5.18
2023-02-08T15:46:20.422Z,4.35
2023-02-08T15:51:24.390Z,5.15
2023-02-08T15:56:38.390Z,3.17
2023-02-08T16:01:47.436Z,6.88
2023-02-08T16:06:55.744Z,7.75
2023-02-08T16:12:00.737Z,8.13
2023-02-08T16:17:04.128Z,5.13
2023-02-08T16:22:22.304Z,6.63
2023-02-08T16:27:29.115Z,5.55
2023-02-08T16:32:39.663Z,5.65
2023-02-08T16:37:42.502Z,4.13
2023-02-08T16:42:44.767Z,5.05
2023-02-08T16:47:47.747Z,5.15
2023-02-08T16:53:02.135Z,6.93
2023-02-08T16:58:04.339Z,4.78
2023-02-08T17:03:06.363Z,7.63
2023-02-08T17:08:14.873Z,5.53
2023-02-08T17:13:20.696Z,5.82
2023-02-08T17:18:23.448Z,5.90
2023-02-08T17:23:26.298Z,8.98
2023-02-08T17:28:28.569Z,7.13
2023-02-08T17:33:33.251Z,4.50
2023-02-08T17:38:39.113Z,3.58
2023-02-08T17:48:43.869Z,4.05
2023-02-08T17:53:46.191Z,6.53
2023-02-08T17:58:52.918Z,7.68
2023-02-08T18:03:55.988Z,8.15
2023-02-08T18:08:58.143Z,9.60
2023-02-08T18:14:00.264Z,10.05
2023-02-08T18:19:02.376Z,12.98
2023-02-08T18:24:05.359Z,12.95
2023-02-08T18:29:07.506Z,15.45
2023-02-08T18:34:10.110Z,15.85
2023-02-08T18:39:14.344Z,16.60
2023-02-08T18:44:18.139Z,18.10
2023-02-08T18:49:20.289Z,18.67
2023-02-08T18:54:22.807Z,21.98
2023-02-08T18:59:24.882Z,40.13
2023-02-08T19:04:27.438Z,46.28
2023-02-08T19:09:29.483Z,52.72
2023-02-08T19:14:31.833Z,48.63
2023-02-08T19:19:33.948Z,43.35
2023-02-08T19:24:36.052Z,26.85
2023-02-08T19:29:38.247Z,19.17
2023-02-08T19:34:40.414Z,20.92
2023-02-08T19:39:42.585Z,21.02
2023-02-08T19:44:44.700Z,23.95
2023-02-08T19:49:47.033Z,16.75
2023-02-08T19:54:49.921Z,18.10
2023-02-08T19:59:52.002Z,27.80
2023-02-08T20:04:54.077Z,48.55
2023-02-08T20:09:56.406Z,31.00
2023-02-08T20:14:58.632Z,18.33
2023-02-08T20:20:00.716Z,14.18
2023-02-08T20:25:04.000Z,12.43
2023-02-08T20:30:07.722Z,12.23
2023-02-08T20:35:09.861Z,11.82
2023-02-08T20:40:13.951Z,14.18
2023-02-08T20:45:16.237Z,11.82
2023-02-08T20:50:20.476Z,10.25
2023-02-08T20:55:22.865Z,14.07
2023-02-08T21:00:33.456Z,13.27
2023-02-08T21:05:42.368Z,21.48
2023-02-08T21:10:44.901Z,16.17
2023-02-08T21:15:47.429Z,43.67
2023-02-08T21:20:51.960Z,50.85
2023-02-08T21:25:54.475Z,70.95
2023-02-08T21:31:05.166Z,47.20
2023-02-08T21:36:10.499Z,81.13
2023-02-08T21:41:20.407Z,39.70
2023-02-08T21:46:24.843Z,36.28
2023-02-08T21:51:46.296Z,37.50
2023-02-08T21:56:48.661Z,29.33
2023-02-08T22:01:50.882Z,18.73
2023-02-08T22:06:53.181Z,21.20
2023-02-08T22:11:56.715Z,18.48
2023-02-08T22:16:58.792Z,15.30
2023-02-08T22:22:02.323Z,15.52
2023-02-08T22:27:04.481Z,12.85
2023-02-08T22:32:07.569Z,15.35
2023-02-08T22:37:09.843Z,15.10
2023-02-08T22:42:14.257Z,15.43
2023-02-08T22:47:16.480Z,12.35
2023-02-08T22:52:18.744Z,27.08
2023-02-08T22:57:21.098Z,33.15
2023-02-08T23:02:24.423Z,22.05
2023-02-08T23:07:26.601Z,15.65
2023-02-08T23:12:30.068Z,16.35
2023-02-08T23:17:32.276Z,17.38
2023-02-08T23:22:37.792Z,15.05
2023-02-08T23:27:40.145Z,15.68
2023-02-08T23:32:42.770Z,14.00
2023-02-08T23:37:44.809Z,12.95
2023-02-08T23:42:47.073Z,14.00
2023-02-08T23:47:49.436Z,14.88
2023-02-08T23:52:51.661Z,13.38
2023-02-08T23:57:53.747Z,12.18
